createdAt,value
2023-05-25T00:00:41.833Z,11.20
2023-05-25T00:01:49.251Z,11.10
2023-05-25T00:02:54.537Z,11.10
2023-05-25T00:03:56.333Z,11.10
2023-05-25T00:05:01.076Z,11.10
2023-05-25T00:06:02.667Z,11.00
2023-05-25T00:07:04.428Z,11.00
2023-05-25T00:08:07.923Z,11.00
2023-05-25T00:09:09.845Z,11.10
2023-05-25T00:10:11.656Z,11.00
2023-05-25T00:11:13.889Z,11.10
2023-05-25T00:12:16.460Z,11.10
2023-05-25T00:13:18.613Z,11.10
2023-05-25T00:14:20.624Z,11.20
2023-05-25T00:15:22.129Z,11.20
2023-05-25T00:16:23.655Z,11.20
2023-05-25T00:17:25.233Z,11.20
2023-05-25T00:18:27.115Z,11.30
2023-05-25T00:19:28.845Z,11.30
2023-05-25T00:20:30.421Z,11.40
2023-05-25T00:21:34.190Z,11.40
2023-05-25T00:22:39.972Z,11.40
2023-05-25T00:23:42.628Z,11.40
2023-05-25T00:24:44.140Z,11.50
2023-05-25T00:25:45.967Z,11.50
2023-05-25T00:26:48.116Z,11.50
2023-05-25T00:27:49.549Z,11.60
2023-05-25T00:28:51.203Z,11.60
2023-05-25T00:29:52.697Z,11.60
2023-05-25T00:30:54.519Z,11.60
2023-05-25T00:31:56.834Z,11.70
2023-05-25T00:32:59.881Z,11.70
2023-05-25T00:34:01.789Z,11.70
2023-05-25T00:35:03.309Z,11.60
2023-05-25T00:36:05.303Z,11.50
2023-05-25T00:37:06.993Z,11.60
2023-05-25T00:38:22.079Z,11.60
2023-05-25T00:39:23.674Z,11.60
2023-05-25T00:40:25.140Z,11.60
2023-05-25T00:41:28.321Z,11.60
2023-05-25T00:42:32.366Z,11.60
2023-05-25T00:43:33.907Z,11.70
2023-05-25T00:44:35.456Z,11.70
2023-05-25T00:45:37.316Z,11.70
2023-05-25T00:46:39.335Z,11.60
2023-05-25T00:47:43.320Z,11.60
2023-05-25T00:48:45.755Z,11.60
2023-05-25T00:49:47.903Z,11.60
2023-05-25T00:50:51.577Z,11.70
2023-05-25T00:51:53.249Z,11.70
2023-05-25T00:52:54.745Z,11.70
2023-05-25T00:53:56.696Z,11.70
2023-05-25T00:55:01.202Z,11.70
2023-05-25T00:56:16.808Z,11.70
2023-05-25T00:57:21.133Z,11.80
2023-05-25T00:58:26.995Z,11.80
2023-05-25T00:59:41.865Z,11.80
2023-05-25T01:00:46.839Z,11.80
2023-05-25T01:01:53.845Z,11.80
2023-05-25T01:02:59.375Z,11.90
2023-05-25T01:04:02.772Z,11.90
2023-05-25T01:05:08.900Z,11.90
2023-05-25T01:06:14.381Z,11.90
2023-05-25T01:07:27.073Z,11.90
2023-05-25T01:08:29.248Z,11.90
2023-05-25T01:09:34.608Z,11.90
2023-05-25T01:10:38.777Z,11.90
2023-05-25T01:11:45.798Z,11.80
2023-05-25T01:12:51.428Z,11.90
2023-05-25T01:13:54.370Z,11.80
2023-05-25T01:14:57.355Z,11.80
2023-05-25T01:16:00.574Z,11.80
2023-05-25T01:17:03.350Z,11.90
2023-05-25T01:18:05.359Z,11.90
2023-05-25T01:19:07.034Z,11.90
2023-05-25T01:20:11.682Z,11.90
2023-05-25T01:21:29.853Z,12.00
2023-05-25T01:22:40.450Z,12.00
2023-05-25T01:23:50.944Z,12.00
2023-05-25T01:24:57.736Z,12.00
2023-05-25T01:26:02.617Z,12.00
2023-05-25T01:27:24.637Z,12.00
2023-05-25T01:28:30.849Z,12.00
2023-05-25T01:29:35.073Z,12.00
2023-05-25T01:30:42.399Z,11.90
2023-05-25T01:31:45.537Z,12.00
2023-05-25T01:32:49.307Z,11.90
2023-05-25T01:33:52.599Z,11.90
2023-05-25T01:34:56.838Z,11.90
2023-05-25T01:35:59.746Z,11.90
2023-05-25T01:37:01.711Z,11.90
2023-05-25T01:38:03.420Z,11.90
2023-05-25T01:39:06.803Z,11.90
2023-05-25T01:40:09.238Z,11.80
2023-05-25T01:41:10.933Z,11.80
2023-05-25T01:42:12.857Z,11.90
2023-05-25T01:43:14.868Z,11.90
2023-05-25T01:44:16.382Z,11.90
2023-05-25T01:45:18.161Z,11.90
2023-05-25T01:46:22.458Z,11.90
2023-05-25T01:47:47.505Z,11.90
2023-05-25T01:49:28.449Z,12.00
2023-05-25T01:50:55.719Z,12.00
2023-05-25T01:52:23.860Z,12.00
2023-05-25T01:53:56.797Z,12.00
2023-05-25T01:55:06.665Z,12.00
2023-05-25T01:56:11.680Z,12.00
2023-05-25T01:57:16.799Z,11.90
2023-05-25T01:58:21.150Z,11.90
2023-05-25T01:59:24.690Z,11.90
2023-05-25T02:00:31.777Z,12.00
2023-05-25T02:01:35.124Z,11.90
2023-05-25T02:02:38.403Z,11.90
2023-05-25T02:03:41.628Z,11.90
2023-05-25T02:04:45.163Z,11.90
2023-05-25T02:05:47.479Z,11.90
2023-05-25T02:06:51.504Z,12.00
2023-05-25T02:07:54.005Z,11.90
2023-05-25T02:08:55.440Z,12.00
2023-05-25T02:09:56.937Z,11.90
2023-05-25T02:10:58.394Z,12.00
2023-05-25T02:11:59.894Z,12.00
2023-05-25T02:13:01.497Z,11.90
2023-05-25T02:14:03.151Z,12.10
2023-05-25T02:15:05.857Z,12.10
2023-05-25T02:16:08.190Z,12.10
2023-05-25T02:17:12.778Z,12.00
2023-05-25T02:18:14.259Z,12.00
2023-05-25T02:19:15.983Z,12.10
2023-05-25T02:20:17.540Z,12.10
2023-05-25T02:21:19.265Z,12.10
2023-05-25T02:22:21.944Z,12.00
2023-05-25T02:23:23.370Z,12.10
2023-05-25T02:24:25.746Z,12.10
2023-05-25T02:25:27.899Z,12.10
2023-05-25T02:26:29.746Z,12.10
2023-05-25T02:27:33.874Z,12.10
2023-05-25T02:28:35.461Z,12.10
2023-05-25T02:29:37.263Z,12.20
2023-05-25T02:30:39.440Z,12.10
2023-05-25T02:31:41.063Z,12.10
2023-05-25T02:32:43.699Z,12.10
2023-05-25T02:33:45.856Z,12.10
2023-05-25T02:34:48.267Z,12.10
2023-05-25T02:35:50.338Z,12.10
2023-05-25T02:36:51.856Z,12.10
2023-05-25T02:37:53.732Z,12.00
2023-05-25T02:38:55.485Z,12.00
2023-05-25T02:39:57.573Z,12.00
2023-05-25T02:40:59.204Z,11.90
2023-05-25T02:42:01.339Z,11.90
2023-05-25T02:43:02.853Z,12.00
2023-05-25T02:44:04.597Z,12.00
2023-05-25T02:45:10.771Z,12.00
2023-05-25T02:46:14.021Z,12.00
2023-05-25T02:47:16.475Z,12.00
2023-05-25T02:48:18.025Z,11.90
2023-05-25T02:49:19.499Z,12.00
2023-05-25T02:50:22.711Z,12.00
2023-05-25T02:51:28.296Z,12.10
2023-05-25T02:52:35.341Z,12.00
2023-05-25T02:53:37.069Z,12.20
2023-05-25T02:54:39.022Z,12.10
2023-05-25T02:55:43.484Z,12.10
2023-05-25T02:56:50.612Z,12.10
2023-05-25T02:57:53.675Z,12.00
2023-05-25T02:59:11.281Z,12.00
2023-05-25T03:00:13.555Z,12.00
2023-05-25T03:01:19.033Z,12.00
2023-05-25T03:02:29.013Z,12.10
2023-05-25T03:03:31.006Z,12.20
2023-05-25T03:04:34.005Z,12.20
2023-05-25T03:05:35.919Z,12.10
2023-05-25T03:06:37.934Z,12.10
2023-05-25T03:07:44.779Z,12.10
2023-05-25T03:08:46.329Z,12.10
2023-05-25T03:09:48.091Z,12.10
2023-05-25T03:10:50.124Z,12.00
2023-05-25T03:11:52.230Z,11.80
2023-05-25T03:12:55.636Z,11.60
2023-05-25T03:13:57.635Z,11.60
2023-05-25T03:14:59.774Z,11.60
2023-05-25T03:16:01.454Z,11.50
2023-05-25T03:17:03.643Z,11.50
2023-05-25T03:18:05.577Z,11.50
2023-05-25T03:19:11.937Z,11.50
2023-05-25T03:20:15.552Z,11.40
2023-05-25T03:21:22.353Z,11.40
2023-05-25T03:22:25.120Z,11.40
2023-05-25T03:23:26.561Z,11.30
2023-05-25T03:24:30.873Z,11.30
2023-05-25T03:25:35.518Z,11.40
2023-05-25T03:26:38.684Z,11.40
2023-05-25T03:27:41.509Z,11.40
2023-05-25T03:28:43.830Z,11.50
2023-05-25T03:29:50.328Z,11.50
2023-05-25T03:30:52.020Z,11.50
2023-05-25T03:31:53.761Z,11.50
2023-05-25T03:32:58.439Z,11.50
2023-05-25T03:34:06.286Z,11.50
2023-05-25T03:35:11.130Z,11.50
2023-05-25T03:36:13.735Z,11.40
2023-05-25T03:37:16.086Z,11.40
2023-05-25T03:38:18.131Z,11.40
2023-05-25T03:39:22.169Z,11.40
2023-05-25T03:40:25.056Z,11.30
2023-05-25T03:41:27.097Z,11.30
2023-05-25T03:42:28.999Z,11.40
2023-05-25T03:43:31.429Z,11.30
2023-05-25T03:44:32.889Z,11.30
2023-05-25T03:45:34.370Z,11.40
2023-05-25T03:46:35.953Z,11.50
2023-05-25T03:47:37.650Z,11.60
2023-05-25T03:48:39.129Z,11.60
2023-05-25T03:49:41.203Z,11.70
2023-05-25T03:50:42.802Z,11.80
2023-05-25T03:51:44.567Z,11.70
2023-05-25T03:52:47.649Z,11.60
2023-05-25T03:53:49.058Z,11.50
2023-05-25T03:54:51.153Z,11.50
2023-05-25T03:55:52.712Z,11.40
2023-05-25T03:56:54.249Z,11.30
2023-05-25T03:57:55.692Z,11.40
2023-05-25T03:58:57.209Z,11.30
2023-05-25T03:59:58.834Z,11.40
2023-05-25T04:01:01.161Z,11.40
2023-05-25T04:02:04.118Z,11.30
2023-05-25T04:03:07.119Z,11.20
2023-05-25T04:04:08.783Z,11.20
2023-05-25T04:05:11.216Z,11.20
2023-05-25T04:06:12.698Z,11.10
2023-05-25T04:07:14.127Z,11.20
2023-05-25T04:08:22.514Z,11.20
2023-05-25T04:09:24.255Z,11.20
2023-05-25T04:10:26.007Z,11.10
2023-05-25T04:11:29.143Z,11.00
2023-05-25T04:12:30.708Z,11.00
2023-05-25T04:13:35.840Z,11.00
2023-05-25T04:14:37.686Z,10.90
2023-05-25T04:15:39.248Z,10.90
2023-05-25T04:16:47.824Z,11.00
2023-05-25T04:17:50.610Z,11.00
2023-05-25T04:18:52.629Z,11.10
2023-05-25T04:19:56.496Z,11.10
2023-05-25T04:20:58.309Z,11.10
2023-05-25T04:21:59.836Z,11.10
2023-05-25T04:23:02.186Z,11.20
2023-05-25T04:24:04.606Z,11.10
2023-05-25T04:25:07.984Z,11.20
2023-05-25T04:26:10.395Z,11.20
2023-05-25T04:27:14.481Z,11.20
2023-05-25T04:28:17.765Z,11.20
2023-05-25T04:29:38.398Z,11.10
2023-05-25T04:30:57.239Z,11.10
2023-05-25T04:32:23.847Z,11.10
2023-05-25T04:33:40.729Z,11.10
2023-05-25T04:34:59.098Z,11.00
2023-05-25T04:36:11.371Z,11.00
2023-05-25T04:37:12.936Z,10.90
2023-05-25T04:38:17.603Z,10.80
2023-05-25T04:39:19.115Z,10.80
2023-05-25T04:40:28.031Z,10.90
2023-05-25T04:41:29.978Z,10.80
2023-05-25T04:42:35.008Z,10.80
2023-05-25T04:43:36.541Z,10.70
2023-05-25T04:44:39.970Z,10.70
2023-05-25T04:45:42.858Z,10.80
2023-05-25T04:46:45.125Z,10.80
2023-05-25T04:47:53.014Z,10.70
2023-05-25T04:48:54.992Z,10.80
2023-05-25T04:49:56.806Z,10.80
2023-05-25T04:50:58.292Z,10.80
2023-05-25T04:51:59.870Z,10.60
2023-05-25T04:53:03.529Z,10.50
2023-05-25T04:54:06.284Z,10.40
2023-05-25T04:55:08.717Z,10.40
2023-05-25T04:56:12.932Z,10.40
2023-05-25T04:57:16.101Z,10.40
2023-05-25T04:58:17.621Z,10.30
2023-05-25T04:59:19.545Z,10.30
2023-05-25T05:00:22.002Z,10.30
2023-05-25T05:01:26.447Z,10.30
2023-05-25T05:02:30.821Z,10.20
2023-05-25T05:03:32.994Z,10.20
2023-05-25T05:04:37.306Z,10.20
2023-05-25T05:05:39.653Z,10.10
2023-05-25T05:06:44.678Z,10.10
2023-05-25T05:07:53.928Z,10.10
2023-05-25T05:08:55.937Z,10.10
2023-05-25T05:09:57.462Z,10.10
2023-05-25T05:10:59.770Z,10.20
2023-05-25T05:12:01.809Z,10.20
2023-05-25T05:13:05.136Z,10.20
2023-05-25T05:14:07.219Z,10.10
2023-05-25T05:15:09.076Z,10.10
2023-05-25T05:16:10.758Z,10.10
2023-05-25T05:17:12.845Z,10.10
2023-05-25T05:18:14.504Z,10.10
2023-05-25T05:19:16.204Z,10.20
2023-05-25T05:20:17.827Z,10.30
2023-05-25T05:21:22.781Z,10.30
2023-05-25T05:22:25.854Z,10.40
2023-05-25T05:23:27.312Z,10.40
2023-05-25T05:24:29.260Z,10.30
2023-05-25T05:25:30.829Z,10.40
2023-05-25T05:26:41.206Z,10.40
2023-05-25T05:27:49.715Z,10.40
2023-05-25T05:28:57.432Z,10.40
2023-05-25T05:29:59.262Z,10.50
2023-05-25T05:31:00.863Z,10.50
2023-05-25T05:32:02.390Z,10.50
2023-05-25T05:33:04.783Z,10.60
2023-05-25T05:34:12.031Z,10.50
2023-05-25T05:35:13.819Z,10.50
2023-05-25T05:36:18.115Z,10.60
2023-05-25T05:37:19.648Z,10.60
2023-05-25T05:38:21.446Z,10.60
2023-05-25T05:39:23.072Z,10.60
2023-05-25T05:40:26.183Z,10.70
2023-05-25T05:41:27.869Z,10.60
2023-05-25T05:42:32.709Z,10.60
2023-05-25T05:43:34.230Z,10.50
2023-05-25T05:44:36.071Z,10.70
2023-05-25T05:45:37.639Z,10.50
2023-05-25T05:46:39.368Z,10.50
2023-05-25T05:47:41.218Z,10.50
2023-05-25T05:48:42.935Z,10.50
2023-05-25T05:49:44.824Z,10.50
2023-05-25T05:50:46.371Z,10.50
2023-05-25T05:51:48.482Z,10.60
2023-05-25T05:52:49.994Z,10.60
2023-05-25T05:53:51.955Z,10.50
2023-05-25T05:54:53.464Z,10.50
2023-05-25T05:55:59.051Z,10.60
2023-05-25T05:57:01.455Z,10.60
2023-05-25T05:58:02.991Z,10.70
2023-05-25T05:59:04.595Z,10.70
2023-05-25T06:00:07.095Z,10.60
2023-05-25T06:01:19.532Z,10.60
2023-05-25T06:02:21.134Z,10.60
2023-05-25T06:03:23.663Z,10.60
2023-05-25T06:04:28.936Z,10.60
2023-05-25T06:05:31.320Z,10.60
2023-05-25T06:06:34.991Z,10.60
2023-05-25T06:07:38.046Z,10.70
2023-05-25T06:08:41.274Z,10.70
2023-05-25T06:09:42.698Z,10.60
2023-05-25T06:10:44.309Z,10.70
2023-05-25T06:11:47.381Z,10.70
2023-05-25T06:12:49.282Z,10.80
2023-05-25T06:13:50.950Z,10.80
2023-05-25T06:14:52.944Z,10.80
2023-05-25T06:15:54.447Z,10.80
2023-05-25T06:16:58.745Z,10.80
2023-05-25T06:18:00.505Z,10.80
2023-05-25T06:19:02.844Z,10.80
2023-05-25T06:20:05.422Z,10.90
2023-05-25T06:21:07.281Z,10.90
2023-05-25T06:22:08.783Z,11.10
2023-05-25T06:23:12.424Z,11.10
2023-05-25T06:24:15.660Z,11.20
2023-05-25T06:25:17.617Z,11.30
2023-05-25T06:26:19.589Z,11.30
2023-05-25T06:27:23.567Z,11.40
2023-05-25T06:28:25.099Z,11.40
2023-05-25T06:29:27.054Z,11.50
2023-05-25T06:30:28.942Z,11.50
2023-05-25T06:31:31.247Z,11.50
2023-05-25T06:32:33.126Z,11.60
2023-05-25T06:33:35.390Z,11.60
2023-05-25T06:34:38.239Z,11.70
2023-05-25T06:35:39.919Z,11.80
2023-05-25T06:36:42.009Z,11.80
2023-05-25T06:37:48.703Z,11.80
2023-05-25T06:38:52.172Z,11.80
2023-05-25T06:39:57.601Z,11.90
2023-05-25T06:41:03.314Z,11.90
2023-05-25T06:42:05.240Z,12.00
2023-05-25T06:43:08.633Z,11.90
2023-05-25T06:44:40.481Z,12.10
2023-05-25T06:45:43.985Z,12.00
2023-05-25T06:46:46.027Z,12.10
2023-05-25T06:47:49.516Z,12.10
2023-05-25T06:48:51.554Z,12.20
2023-05-25T06:49:53.683Z,12.20
2023-05-25T06:50:55.112Z,12.20
2023-05-25T06:51:56.565Z,12.20
2023-05-25T06:53:00.354Z,12.30
2023-05-25T06:54:02.207Z,12.30
2023-05-25T06:55:04.057Z,12.40
2023-05-25T06:56:05.905Z,12.50
2023-05-25T06:57:07.997Z,12.60
2023-05-25T06:58:09.498Z,12.60
2023-05-25T06:59:11.359Z,12.60
2023-05-25T07:00:13.706Z,12.70
2023-05-25T07:01:15.881Z,12.60
2023-05-25T07:02:19.070Z,12.60
2023-05-25T07:03:20.935Z,12.60
2023-05-25T07:04:23.273Z,12.70
2023-05-25T07:05:25.002Z,12.70
2023-05-25T07:06:26.658Z,12.70
2023-05-25T07:07:28.281Z,12.80
2023-05-25T07:08:30.085Z,12.90
2023-05-25T07:09:31.629Z,13.00
2023-05-25T07:10:34.356Z,13.10
2023-05-25T07:11:35.877Z,13.20
2023-05-25T07:12:37.979Z,13.20
2023-05-25T07:13:39.637Z,13.30
2023-05-25T07:14:41.140Z,13.30
2023-05-25T07:15:42.866Z,13.20
2023-05-25T07:16:48.169Z,13.20
2023-05-25T07:17:50.208Z,13.20
2023-05-25T07:18:51.783Z,13.20
2023-05-25T07:19:53.301Z,13.30
2023-05-25T07:20:54.780Z,13.40
2023-05-25T07:21:56.247Z,13.50
2023-05-25T07:22:57.686Z,13.50
2023-05-25T07:23:59.172Z,13.50
2023-05-25T07:25:00.844Z,13.50
2023-05-25T07:26:05.069Z,13.40
2023-05-25T07:27:08.275Z,13.60
2023-05-25T07:28:09.707Z,13.80
2023-05-25T07:29:12.389Z,13.80
2023-05-25T07:30:14.177Z,13.80
2023-05-25T07:31:16.366Z,13.70
2023-05-25T07:32:18.272Z,13.70
2023-05-25T07:33:19.741Z,13.80
2023-05-25T07:34:21.386Z,13.80
2023-05-25T07:35:22.877Z,13.80
2023-05-25T07:36:27.200Z,13.80
2023-05-25T07:37:28.901Z,13.80
2023-05-25T07:38:30.977Z,13.90
2023-05-25T07:39:32.456Z,13.90
2023-05-25T07:40:34.190Z,13.90
2023-05-25T07:41:35.779Z,13.80
2023-05-25T07:42:37.260Z,13.80
2023-05-25T07:43:39.124Z,13.80
2023-05-25T07:44:40.611Z,13.80
2023-05-25T07:45:42.801Z,13.90
2023-05-25T07:46:44.721Z,14.00
2023-05-25T07:47:46.258Z,14.00
2023-05-25T07:48:48.156Z,14.00
2023-05-25T07:49:49.906Z,14.10
2023-05-25T07:50:51.558Z,14.10
2023-05-25T07:51:52.979Z,14.10
2023-05-25T07:52:54.519Z,14.10
2023-05-25T07:53:57.118Z,14.20
2023-05-25T07:54:58.764Z,14.30
2023-05-25T07:56:00.419Z,14.30
2023-05-25T07:57:01.847Z,14.30
2023-05-25T07:58:03.864Z,14.40
2023-05-25T07:59:06.099Z,14.50
2023-05-25T08:00:09.334Z,14.50
2023-05-25T08:01:17.358Z,14.60
2023-05-25T08:02:19.042Z,14.70
2023-05-25T08:03:31.733Z,14.70
2023-05-25T08:04:41.898Z,14.80
2023-05-25T08:05:44.357Z,15.00
2023-05-25T08:06:46.353Z,15.10
2023-05-25T08:07:47.752Z,15.20
2023-05-25T08:08:50.053Z,15.20
2023-05-25T08:09:52.112Z,15.30
2023-05-25T08:10:53.617Z,15.30
2023-05-25T08:12:07.669Z,15.40
2023-05-25T08:13:16.691Z,15.20
2023-05-25T08:14:18.189Z,15.30
2023-05-25T08:15:19.669Z,15.40
2023-05-25T08:16:21.835Z,15.50
2023-05-25T08:17:23.634Z,15.50
2023-05-25T08:18:25.218Z,15.60
2023-05-25T08:19:27.072Z,15.70
2023-05-25T08:20:29.008Z,15.70
2023-05-25T08:21:31.855Z,15.60
2023-05-25T08:22:36.072Z,15.50
2023-05-25T08:23:42.542Z,15.50
2023-05-25T08:24:44.093Z,15.50
2023-05-25T08:25:45.778Z,15.60
2023-05-25T08:26:54.754Z,15.60
2023-05-25T08:27:57.357Z,15.70
2023-05-25T08:28:58.954Z,15.60
2023-05-25T08:30:00.581Z,15.50
2023-05-25T08:31:01.992Z,15.50
2023-05-25T08:32:03.884Z,15.50
2023-05-25T08:33:06.866Z,15.60
2023-05-25T08:34:08.449Z,15.70
2023-05-25T08:35:10.106Z,15.70
2023-05-25T08:36:11.905Z,15.70
2023-05-25T08:37:13.864Z,15.60
2023-05-25T08:38:15.481Z,15.60
2023-05-25T08:39:17.205Z,15.60
2023-05-25T08:40:22.537Z,15.70
2023-05-25T08:41:24.251Z,15.70
2023-05-25T08:42:25.906Z,15.80
2023-05-25T08:43:27.950Z,15.80
2023-05-25T08:44:30.640Z,15.90
2023-05-25T08:45:35.281Z,15.80
2023-05-25T08:46:38.700Z,16.00
2023-05-25T08:47:44.824Z,16.10
2023-05-25T08:48:48.596Z,16.00
2023-05-25T08:49:51.353Z,16.00
2023-05-25T08:50:54.054Z,16.10
2023-05-25T08:51:55.955Z,16.30
2023-05-25T08:52:59.628Z,16.50
2023-05-25T08:54:07.946Z,16.60
2023-05-25T08:55:10.934Z,16.50
2023-05-25T08:56:25.274Z,16.70
2023-05-25T08:57:41.232Z,16.90
2023-05-25T08:59:04.848Z,17.00
2023-05-25T09:00:11.847Z,17.10
2023-05-25T09:01:18.308Z,17.30
2023-05-25T09:02:27.080Z,17.50
2023-05-25T09:03:31.210Z,17.80
2023-05-25T09:04:34.583Z,17.90
2023-05-25T09:05:38.034Z,18.00
2023-05-25T09:06:40.583Z,18.10
2023-05-25T09:07:43.744Z,18.30
2023-05-25T09:08:47.253Z,18.40
2023-05-25T09:09:49.330Z,18.60
2023-05-25T09:10:52.574Z,18.80
2023-05-25T09:11:55.407Z,18.70
2023-05-25T09:12:57.711Z,18.90
2023-05-25T09:14:02.376Z,19.00
2023-05-25T09:15:04.215Z,19.10
2023-05-25T09:16:06.991Z,19.10
2023-05-25T09:17:08.585Z,19.20
2023-05-25T09:18:12.257Z,19.20
2023-05-25T09:19:16.871Z,19.30
2023-05-25T09:20:20.825Z,19.40
2023-05-25T09:21:22.737Z,19.50
2023-05-25T09:22:24.305Z,19.70
2023-05-25T09:23:26.469Z,19.70
2023-05-25T09:24:28.468Z,19.80
2023-05-25T09:25:31.832Z,19.90
2023-05-25T09:26:34.509Z,19.90
2023-05-25T09:27:39.597Z,19.90
2023-05-25T09:28:48.402Z,20.00
2023-05-25T09:29:50.931Z,19.90
2023-05-25T09:30:53.507Z,20.00
2023-05-25T09:31:56.577Z,20.00
2023-05-25T09:33:09.777Z,20.00
2023-05-25T09:34:12.932Z,20.00
2023-05-25T09:35:15.457Z,20.10
2023-05-25T09:36:17.951Z,20.10
2023-05-25T09:37:20.159Z,20.00
2023-05-25T09:38:22.721Z,19.80
2023-05-25T09:39:25.988Z,19.80
2023-05-25T09:40:27.894Z,19.70
2023-05-25T09:41:30.155Z,19.90
2023-05-25T09:42:33.177Z,20.00
2023-05-25T09:43:44.584Z,20.00
2023-05-25T09:44:50.672Z,20.00
2023-05-25T09:45:53.231Z,20.10
2023-05-25T09:46:54.776Z,20.20
2023-05-25T09:47:57.507Z,20.30
2023-05-25T09:48:59.997Z,20.30
2023-05-25T09:50:02.740Z,20.20
2023-05-25T09:51:07.494Z,19.50
2023-05-25T09:52:08.986Z,19.60
2023-05-25T09:53:11.751Z,19.60
2023-05-25T09:54:13.815Z,19.60
2023-05-25T09:55:15.812Z,19.50
2023-05-25T09:56:17.888Z,19.60
2023-05-25T09:57:20.969Z,19.60
2023-05-25T09:58:27.163Z,19.60
2023-05-25T09:59:28.811Z,19.60
2023-05-25T10:00:30.466Z,19.60
2023-05-25T10:01:33.748Z,19.70
2023-05-25T10:02:36.222Z,19.80
2023-05-25T10:05:12.767Z,19.80
2023-05-25T10:06:17.853Z,20.00
2023-05-25T10:07:19.886Z,20.00
2023-05-25T10:08:22.028Z,20.00
2023-05-25T10:09:27.458Z,20.00
2023-05-25T10:10:29.677Z,20.00
2023-05-25T10:11:33.830Z,20.00
2023-05-25T10:12:35.986Z,20.00
2023-05-25T10:13:38.080Z,20.10
2023-05-25T10:14:40.619Z,20.10
2023-05-25T10:15:45.051Z,19.90
2023-05-25T10:16:50.431Z,19.70
2023-05-25T10:17:58.405Z,19.50
2023-05-25T10:19:25.963Z,19.40
2023-05-25T10:22:05.322Z,19.50
2023-05-25T10:23:20.582Z,19.60
2023-05-25T10:24:31.423Z,19.60
2023-05-25T10:25:38.032Z,19.50
2023-05-25T10:26:42.465Z,19.70
2023-05-25T10:28:02.122Z,19.80
2023-05-25T10:29:04.695Z,19.90
2023-05-25T10:30:08.565Z,20.00
2023-05-25T10:31:10.848Z,20.10
2023-05-25T10:32:14.812Z,20.10
2023-05-25T10:33:17.260Z,20.20
2023-05-25T10:34:20.339Z,20.30
2023-05-25T10:35:22.774Z,20.10
2023-05-25T10:36:26.502Z,20.10
2023-05-25T10:37:29.348Z,20.20
2023-05-25T10:38:32.035Z,20.20
2023-05-25T10:39:34.958Z,20.20
2023-05-25T10:40:37.911Z,20.30
2023-05-25T10:41:39.581Z,20.40
2023-05-25T10:42:41.808Z,20.40
2023-05-25T10:43:43.429Z,20.40
2023-05-25T10:44:46.035Z,20.40
2023-05-25T10:45:48.562Z,20.50
2023-05-25T10:46:50.675Z,20.50
2023-05-25T10:47:52.489Z,20.30
2023-05-25T10:49:00.589Z,20.20
2023-05-25T10:50:03.464Z,20.10
2023-05-25T10:51:11.120Z,20.10
2023-05-25T10:52:23.125Z,20.10
2023-05-25T10:53:25.840Z,20.20
2023-05-25T10:54:34.920Z,20.20
2023-05-25T10:55:52.544Z,20.30
2023-05-25T10:57:19.299Z,20.30
2023-05-25T10:58:22.441Z,20.40
2023-05-25T10:59:28.526Z,20.50
2023-05-25T11:00:31.771Z,20.60
2023-05-25T11:01:33.866Z,20.60
2023-05-25T11:02:56.272Z,20.70
2023-05-25T11:04:18.334Z,20.60
2023-05-25T11:05:35.952Z,20.40
2023-05-25T11:06:37.893Z,20.40
2023-05-25T11:07:56.088Z,20.50
2023-05-25T11:08:59.442Z,20.60
2023-05-25T11:10:01.451Z,20.40
2023-05-25T11:11:04.333Z,20.50
2023-05-25T11:12:06.722Z,20.60
2023-05-25T11:13:23.667Z,20.60
2023-05-25T11:14:30.310Z,20.70
2023-05-25T11:15:32.657Z,20.70
2023-05-25T11:16:36.279Z,20.80
2023-05-25T11:18:00.237Z,20.80
2023-05-25T11:19:02.346Z,20.80
2023-05-25T11:20:06.413Z,20.80
2023-05-25T11:21:43.832Z,20.80
2023-05-25T11:22:45.936Z,20.70
2023-05-25T11:24:04.431Z,20.60
2023-05-25T11:25:39.916Z,20.40
2023-05-25T11:26:56.891Z,20.40
2023-05-25T11:28:04.566Z,20.50
2023-05-25T11:29:13.786Z,20.50
2023-05-25T11:30:18.395Z,20.60
2023-05-25T11:31:37.831Z,20.60
2023-05-25T11:32:50.707Z,20.60
2023-05-25T11:33:57.396Z,20.70
2023-05-25T11:34:59.682Z,20.70
2023-05-25T11:36:01.558Z,20.80
2023-05-25T11:37:03.906Z,20.80
2023-05-25T11:38:08.853Z,20.90
2023-05-25T11:39:20.505Z,21.00
2023-05-25T11:40:24.025Z,21.00
2023-05-25T11:41:26.158Z,21.10
2023-05-25T11:42:29.270Z,21.20
2023-05-25T11:43:34.086Z,21.30
2023-05-25T11:44:36.819Z,21.30
2023-05-25T11:45:39.238Z,21.40
2023-05-25T11:46:43.741Z,21.40
2023-05-25T11:47:45.809Z,21.40
2023-05-25T11:48:53.970Z,21.60
2023-05-25T11:49:56.881Z,21.60
2023-05-25T11:51:06.145Z,21.60
2023-05-25T11:52:08.183Z,21.70
2023-05-25T11:53:10.846Z,21.70
2023-05-25T11:54:22.004Z,21.70
2023-05-25T11:55:23.862Z,21.60
2023-05-25T11:56:35.138Z,21.60
2023-05-25T11:57:39.148Z,21.70
2023-05-25T11:58:41.520Z,21.80
2023-05-25T11:59:54.286Z,21.80
2023-05-25T12:00:55.799Z,21.90
2023-05-25T12:01:58.107Z,22.00
2023-05-25T12:02:59.722Z,21.90
2023-05-25T12:04:09.467Z,22.00
2023-05-25T12:05:11.853Z,21.90
2023-05-25T12:06:34.321Z,21.80
2023-05-25T12:07:42.333Z,21.90
2023-05-25T12:08:43.796Z,21.90
2023-05-25T12:09:46.006Z,22.00
2023-05-25T12:10:52.101Z,22.00
2023-05-25T12:11:54.275Z,22.10
2023-05-25T12:12:58.741Z,22.10
2023-05-25T12:14:02.090Z,22.20
2023-05-25T12:15:03.843Z,22.10
2023-05-25T12:16:05.687Z,22.10
2023-05-25T12:17:07.409Z,22.00
2023-05-25T12:18:09.343Z,22.00
2023-05-25T12:19:12.075Z,22.10
2023-05-25T12:20:15.384Z,22.20
2023-05-25T12:21:17.562Z,22.30
2023-05-25T12:22:19.302Z,22.30
2023-05-25T12:23:21.582Z,22.10
2023-05-25T12:24:23.270Z,22.10
2023-05-25T12:25:24.959Z,22.10
2023-05-25T12:26:28.559Z,22.20
2023-05-25T12:27:29.999Z,22.30
2023-05-25T12:28:32.059Z,22.30
2023-05-25T12:29:46.528Z,22.40
2023-05-25T12:30:49.361Z,22.50
2023-05-25T12:31:50.980Z,22.60
2023-05-25T12:33:03.813Z,22.60
2023-05-25T12:34:14.239Z,22.50
2023-05-25T12:35:15.702Z,22.50
2023-05-25T12:36:18.022Z,22.60
2023-05-25T12:37:22.799Z,22.60
2023-05-25T12:38:24.447Z,22.70
2023-05-25T12:39:31.859Z,22.60
2023-05-25T12:40:33.312Z,22.60
2023-05-25T12:41:55.010Z,22.60
2023-05-25T12:42:57.595Z,22.60
2023-05-25T12:43:59.534Z,22.60
2023-05-25T12:45:01.907Z,22.60
2023-05-25T12:46:03.555Z,22.60
2023-05-25T12:47:20.910Z,22.30
2023-05-25T12:48:28.511Z,22.10
2023-05-25T12:49:32.230Z,22.00
2023-05-25T12:50:34.489Z,22.00
2023-05-25T12:51:39.628Z,22.00
2023-05-25T12:52:46.637Z,22.10
2023-05-25T12:53:52.285Z,22.20
2023-05-25T12:54:53.798Z,22.10
2023-05-25T12:56:04.691Z,22.10
2023-05-25T12:57:07.892Z,22.10
2023-05-25T12:58:27.360Z,22.10
2023-05-25T12:59:31.284Z,22.20
2023-05-25T13:00:33.683Z,22.10
2023-05-25T13:01:35.597Z,22.00
2023-05-25T13:02:37.275Z,22.10
2023-05-25T13:03:38.844Z,22.20
2023-05-25T13:04:42.048Z,22.30
2023-05-25T13:05:44.245Z,22.30
2023-05-25T13:06:45.803Z,22.30
2023-05-25T13:07:48.058Z,22.20
2023-05-25T13:08:49.770Z,22.10
2023-05-25T13:09:51.444Z,22.10
2023-05-25T13:10:53.406Z,22.20
2023-05-25T13:11:56.251Z,22.20
2023-05-25T13:12:58.552Z,22.20
2023-05-25T13:14:01.835Z,22.20
2023-05-25T13:15:03.762Z,22.00
2023-05-25T13:16:05.481Z,22.00
2023-05-25T13:17:07.047Z,22.00
2023-05-25T13:18:12.059Z,21.90
2023-05-25T13:19:13.561Z,21.90
2023-05-25T13:20:16.545Z,21.90
2023-05-25T13:21:18.063Z,21.90
2023-05-25T13:22:19.728Z,21.90
2023-05-25T13:23:22.404Z,21.80
2023-05-25T13:24:24.703Z,21.70
2023-05-25T13:25:27.787Z,21.80
2023-05-25T13:26:29.665Z,21.80
2023-05-25T13:27:31.788Z,21.60
2023-05-25T13:28:33.384Z,21.50
2023-05-25T13:29:34.785Z,21.50
2023-05-25T13:30:36.867Z,21.50
2023-05-25T13:31:38.715Z,21.50
2023-05-25T13:32:40.515Z,21.50
2023-05-25T13:33:42.331Z,21.50
2023-05-25T13:34:44.094Z,21.50
2023-05-25T13:35:58.146Z,21.40
2023-05-25T13:37:00.363Z,21.50
2023-05-25T13:38:01.898Z,21.60
2023-05-25T13:39:05.260Z,21.70
2023-05-25T13:40:07.485Z,21.80
2023-05-25T13:41:08.996Z,21.90
2023-05-25T13:42:10.481Z,22.00
2023-05-25T13:43:11.973Z,21.90
2023-05-25T13:44:16.582Z,21.90
2023-05-25T13:45:19.146Z,21.90
2023-05-25T13:46:33.496Z,21.90
2023-05-25T13:47:36.070Z,21.80
2023-05-25T13:48:37.964Z,21.90
2023-05-25T13:49:39.561Z,21.80